createdAt,value
2023-04-12T00:01:45.261Z,18.73
2023-04-12T00:04:14.407Z,18.37
2023-04-12T00:06:42.796Z,18.70
2023-04-12T00:09:10.746Z,17.77
2023-04-12T00:11:38.735Z,17.80
2023-04-12T00:14:06.622Z,18.20
2023-04-12T00:16:36.105Z,18.03
2023-04-12T00:19:06.624Z,17.43
2023-04-12T00:21:34.551Z,16.70
2023-04-12T00:24:02.531Z,16.77
2023-04-12T00:26:30.618Z,15.33
2023-04-12T00:28:58.575Z,15.30
2023-04-12T00:31:26.603Z,15.30
2023-04-12T00:33:55.175Z,14.50
2023-04-12T00:36:24.604Z,14.37
2023-04-12T00:38:52.570Z,14.13
2023-04-12T00:41:20.987Z,14.27
2023-04-12T00:43:49.775Z,14.13
2023-04-12T00:46:19.842Z,13.93
2023-04-12T00:48:48.677Z,13.40
2023-04-12T00:51:18.259Z,14.67
2023-04-12T00:53:47.965Z,14.17
2023-04-12T00:56:16.124Z,15.97
2023-04-12T00:58:44.172Z,15.00
2023-04-12T01:01:12.143Z,16.33
2023-04-12T01:03:43.422Z,16.10
2023-04-12T01:06:17.032Z,15.70
2023-04-12T01:08:55.227Z,17.10
2023-04-12T01:11:33.170Z,16.37
2023-04-12T01:14:11.228Z,17.27
2023-04-12T01:16:44.494Z,16.57
2023-04-12T01:19:46.146Z,16.37
2023-04-12T01:22:21.549Z,17.90
2023-04-12T01:25:04.771Z,17.37
2023-04-12T01:27:40.754Z,16.83
2023-04-12T01:30:12.144Z,17.50
2023-04-12T01:32:41.366Z,16.40
2023-04-12T01:35:11.593Z,16.87
2023-04-12T01:37:40.271Z,16.83
2023-04-12T01:40:10.083Z,16.63
2023-04-12T01:42:39.714Z,16.57
2023-04-12T01:45:08.868Z,15.80
2023-04-12T01:47:36.946Z,16.87
2023-04-12T01:50:17.581Z,16.60
2023-04-12T01:52:53.928Z,16.53
2023-04-12T01:55:24.856Z,16.57
2023-04-12T01:57:54.875Z,15.57
2023-04-12T02:00:24.604Z,15.53
2023-04-12T02:02:53.674Z,16.07
2023-04-12T02:05:22.422Z,16.20
2023-04-12T02:07:54.028Z,15.77
2023-04-12T02:10:29.388Z,15.87
2023-04-12T02:13:01.416Z,15.33
2023-04-12T02:15:30.175Z,15.70
2023-04-12T02:17:59.516Z,16.43
2023-04-12T02:20:28.071Z,16.30
2023-04-12T02:22:56.139Z,15.70
2023-04-12T02:25:24.285Z,17.37
2023-04-12T02:27:52.283Z,16.70
2023-04-12T02:30:23.032Z,17.00
2023-04-12T02:32:56.123Z,17.37
2023-04-12T02:35:28.568Z,16.67
2023-04-12T02:38:04.007Z,16.90
2023-04-12T02:40:32.035Z,17.03
2023-04-12T02:43:00.140Z,17.87
2023-04-12T02:45:29.767Z,18.23
2023-04-12T02:47:58.821Z,17.50
2023-04-12T02:50:30.489Z,17.00
2023-04-12T02:53:11.146Z,17.40
2023-04-12T02:55:40.580Z,17.73
2023-04-12T02:58:10.171Z,16.20
2023-04-12T03:00:46.719Z,17.17
2023-04-12T03:03:17.913Z,17.57
2023-04-12T03:05:48.209Z,16.60
2023-04-12T03:08:18.248Z,17.40
2023-04-12T03:10:53.989Z,17.20
2023-04-12T03:13:23.033Z,15.90
2023-04-12T03:15:58.089Z,17.57
2023-04-12T03:18:33.002Z,16.20
2023-04-12T03:21:02.461Z,16.53
2023-04-12T03:23:31.337Z,15.63
2023-04-12T03:26:09.944Z,15.67
2023-04-12T03:28:38.444Z,15.93
2023-04-12T03:31:10.600Z,16.40
2023-04-12T03:33:42.496Z,15.57
2023-04-12T03:36:21.520Z,15.40
2023-04-12T03:38:55.756Z,16.07
2023-04-12T03:41:24.702Z,16.20
2023-04-12T03:43:52.873Z,16.17
2023-04-12T03:46:22.709Z,15.30
2023-04-12T03:48:56.936Z,15.30
2023-04-12T03:51:27.062Z,15.63
2023-04-12T03:54:02.730Z,15.43
2023-04-12T03:56:35.619Z,14.77
2023-04-12T03:59:08.638Z,16.40
2023-04-12T04:01:39.855Z,14.87
2023-04-12T04:04:09.019Z,15.20
2023-04-12T04:06:37.517Z,15.20
2023-04-12T04:09:05.631Z,14.50
2023-04-12T04:11:37.756Z,15.50
2023-04-12T04:14:08.513Z,15.10
2023-04-12T04:16:36.949Z,14.70
2023-04-12T04:19:09.146Z,14.93
2023-04-12T04:21:37.241Z,14.03
2023-04-12T04:24:07.037Z,14.37
2023-04-12T04:26:39.468Z,14.20
2023-04-12T04:29:20.606Z,14.60
2023-04-12T04:31:48.718Z,14.77
2023-04-12T04:34:19.292Z,14.40
2023-04-12T04:36:49.106Z,14.83
2023-04-12T04:39:24.150Z,14.27
2023-04-12T04:41:55.089Z,14.70
2023-04-12T04:44:47.738Z,14.30
2023-04-12T04:47:16.894Z,13.80
2023-04-12T04:49:48.107Z,13.63
2023-04-12T04:52:25.620Z,14.27
2023-04-12T04:54:58.610Z,14.37
2023-04-12T04:57:32.555Z,13.93
2023-04-12T05:00:01.801Z,14.30
2023-04-12T05:02:31.637Z,14.73
2023-04-12T05:05:02.433Z,14.57
2023-04-12T05:07:32.852Z,14.67
2023-04-12T05:10:00.943Z,14.03
2023-04-12T05:12:31.353Z,14.43
2023-04-12T05:15:11.053Z,13.40
2023-04-12T05:17:41.062Z,17.40
2023-04-12T05:20:11.921Z,15.97
2023-04-12T05:22:40.793Z,15.00
2023-04-12T05:25:09.518Z,14.27
2023-04-12T05:27:43.817Z,14.67
2023-04-12T05:30:16.048Z,14.23
2023-04-12T05:32:45.367Z,14.80
2023-04-12T05:35:16.580Z,14.77
2023-04-12T05:37:45.769Z,15.33
2023-04-12T05:40:15.132Z,14.17
2023-04-12T05:42:43.995Z,14.53
2023-04-12T05:45:13.827Z,16.00
2023-04-12T05:47:43.961Z,17.17
2023-04-12T05:50:12.609Z,19.30
2023-04-12T05:52:42.379Z,19.33
2023-04-12T05:55:11.181Z,19.73
2023-04-12T05:57:45.766Z,21.97
2023-04-12T06:00:18.697Z,21.67
2023-04-12T06:02:50.700Z,20.50
2023-04-12T06:05:19.702Z,20.43
2023-04-12T06:07:49.243Z,22.47
2023-04-12T06:10:18.411Z,21.33
2023-04-12T06:12:50.536Z,20.90
2023-04-12T06:15:20.985Z,21.07
2023-04-12T06:17:53.603Z,21.67
2023-04-12T06:20:21.686Z,21.57
2023-04-12T06:22:51.221Z,22.83
2023-04-12T06:25:19.205Z,20.03
2023-04-12T06:27:48.990Z,19.73
2023-04-12T06:30:19.538Z,19.67
2023-04-12T06:32:56.591Z,19.97
2023-04-12T06:35:24.663Z,19.33
2023-04-12T06:37:54.297Z,18.77
2023-04-12T06:40:22.359Z,18.00
2023-04-12T06:42:50.619Z,17.53
2023-04-12T06:45:23.429Z,17.87
2023-04-12T06:47:51.593Z,18.20
2023-04-12T06:50:19.713Z,17.50
2023-04-12T06:52:48.747Z,17.10
2023-04-12T06:55:18.656Z,16.83
2023-04-12T06:57:46.587Z,16.87
2023-04-12T07:00:15.575Z,16.20
2023-04-12T07:02:43.717Z,17.53
2023-04-12T07:05:11.888Z,17.53
2023-04-12T07:07:39.853Z,16.70
2023-04-12T07:10:09.597Z,17.73
2023-04-12T07:12:38.887Z,17.50
2023-04-12T07:15:07.717Z,16.77
2023-04-12T07:17:35.711Z,16.53
2023-04-12T07:20:03.735Z,16.60
2023-04-12T07:22:31.725Z,16.97
2023-04-12T07:24:59.873Z,17.30
2023-04-12T07:27:27.826Z,16.55
2023-04-12T07:29:58.060Z,16.77
2023-04-12T07:32:26.101Z,16.97
2023-04-12T07:34:54.119Z,15.80
2023-04-12T07:37:22.110Z,17.57
2023-04-12T07:39:50.145Z,17.27
2023-04-12T07:42:18.474Z,16.43
2023-04-12T07:44:46.713Z,15.80
2023-04-12T07:47:16.179Z,16.30
2023-04-12T07:49:44.201Z,16.27
2023-04-12T07:52:12.164Z,15.80
2023-04-12T07:54:40.332Z,16.13
2023-04-12T07:57:09.750Z,15.83
2023-04-12T07:59:37.722Z,15.30
2023-04-12T08:02:06.294Z,15.87
2023-04-12T08:04:35.719Z,16.17
2023-04-12T08:07:03.653Z,15.47
2023-04-12T08:09:31.655Z,15.17
2023-04-12T08:11:59.746Z,15.07
2023-04-12T08:14:27.784Z,16.40
2023-04-12T08:16:55.772Z,16.80
2023-04-12T08:19:23.824Z,15.80
2023-04-12T08:21:53.661Z,15.57
2023-04-12T08:24:21.568Z,15.50
2023-04-12T08:26:49.506Z,17.57
2023-04-12T08:29:17.881Z,16.00
2023-04-12T08:31:46.434Z,15.53
2023-04-12T08:34:14.637Z,15.10
2023-04-12T08:36:42.609Z,15.80
2023-04-12T08:39:11.908Z,16.33
2023-04-12T08:41:40.758Z,15.70
2023-04-12T08:44:09.500Z,14.77
2023-04-12T08:46:37.795Z,14.77
2023-04-12T08:49:05.760Z,13.80
2023-04-12T08:51:34.820Z,14.53
2023-04-12T08:54:02.837Z,13.50
2023-04-12T08:56:33.361Z,14.33
2023-04-12T08:59:01.984Z,15.07
2023-04-12T09:01:30.480Z,14.40
2023-04-12T09:03:59.574Z,14.40
2023-04-12T09:06:27.867Z,12.43
2023-04-12T09:08:58.028Z,13.73
2023-04-12T09:11:27.202Z,13.80
2023-04-12T09:13:57.897Z,13.80
2023-04-12T09:16:37.315Z,13.67
2023-04-12T09:19:05.546Z,13.63
2023-04-12T09:21:34.714Z,13.37
2023-04-12T09:24:11.762Z,14.63
2023-04-12T09:26:41.514Z,15.03
2023-04-12T09:29:25.861Z,14.13
2023-04-12T09:31:58.371Z,12.40
2023-04-12T09:34:27.918Z,12.60
2023-04-12T09:36:56.228Z,13.30
2023-04-12T09:39:33.081Z,12.20
2023-04-12T09:42:18.071Z,13.87
2023-04-12T09:44:54.828Z,13.47
2023-04-12T09:47:23.047Z,11.93
2023-04-12T09:49:51.172Z,12.33
2023-04-12T09:52:19.490Z,13.67
2023-04-12T09:54:49.210Z,12.67
2023-04-12T09:57:19.063Z,11.90
2023-04-12T09:59:50.175Z,11.70
2023-04-12T10:02:22.439Z,11.13
2023-04-12T10:04:50.722Z,12.07
2023-04-12T10:07:19.677Z,11.20
2023-04-12T10:09:48.318Z,11.10
2023-04-12T10:12:17.332Z,11.10
2023-04-12T10:14:47.086Z,11.63
2023-04-12T10:17:15.662Z,11.93
2023-04-12T10:19:46.140Z,10.97
2023-04-12T10:22:15.568Z,10.70
2023-04-12T10:24:44.432Z,10.33
2023-04-12T10:27:15.449Z,10.47
2023-04-12T10:29:43.507Z,9.63
2023-04-12T10:32:22.968Z,9.50
2023-04-12T10:34:57.388Z,9.80
2023-04-12T10:38:00.146Z,10.27
2023-04-12T10:40:28.829Z,9.70
2023-04-12T10:43:30.161Z,9.80
2023-04-12T10:46:04.114Z,9.30
2023-04-12T10:48:33.496Z,9.97
2023-04-12T10:51:23.604Z,10.00
2023-04-12T10:53:52.858Z,10.10
2023-04-12T10:56:44.974Z,9.47
2023-04-12T10:59:56.957Z,9.40
2023-04-12T11:02:25.650Z,8.80
2023-04-12T11:05:08.804Z,8.90
2023-04-12T11:07:54.988Z,8.40
2023-04-12T11:10:42.969Z,8.97
2023-04-12T11:13:17.658Z,8.60
2023-04-12T11:15:45.829Z,10.00
2023-04-12T11:18:14.223Z,9.13
2023-04-12T11:20:42.780Z,8.63
2023-04-12T11:23:12.586Z,8.20
2023-04-12T11:25:40.935Z,8.53
2023-04-12T11:28:21.139Z,8.00
2023-04-12T11:30:54.531Z,8.20
2023-04-12T11:33:36.967Z,8.30
2023-04-12T11:36:07.321Z,8.47
2023-04-12T11:38:38.229Z,8.00
2023-04-12T11:41:08.947Z,8.90
2023-04-12T11:43:38.902Z,8.80
2023-04-12T11:46:07.394Z,8.43
2023-04-12T11:48:38.481Z,8.83
2023-04-12T11:51:20.443Z,8.13
2023-04-12T11:53:54.087Z,8.30
2023-04-12T11:56:22.407Z,7.70
2023-04-12T11:58:50.903Z,7.90
2023-04-12T12:01:21.356Z,6.97
2023-04-12T12:03:50.404Z,7.00
2023-04-12T12:06:20.044Z,7.77
2023-04-12T12:08:50.893Z,8.00
2023-04-12T12:11:21.510Z,7.67
2023-04-12T12:13:50.938Z,8.03
2023-04-12T12:16:19.803Z,8.20
2023-04-12T12:18:52.770Z,7.37
2023-04-12T12:21:43.691Z,7.70
2023-04-12T12:24:16.656Z,8.13
2023-04-12T12:26:45.226Z,7.43
2023-04-12T12:29:19.485Z,7.30
2023-04-12T12:31:49.164Z,7.50
2023-04-12T12:34:19.566Z,7.30
2023-04-12T12:36:56.872Z,8.20
2023-04-12T12:39:26.427Z,7.83
2023-04-12T12:41:55.864Z,7.57
2023-04-12T12:44:24.302Z,7.63
2023-04-12T12:46:58.717Z,8.27
2023-04-12T12:49:36.013Z,8.00
2023-04-12T12:52:04.203Z,8.03
2023-04-12T12:55:02.407Z,8.13
2023-04-12T12:58:07.532Z,7.57
2023-04-12T13:00:37.395Z,7.40
2023-04-12T13:03:05.879Z,9.00
2023-04-12T13:05:34.527Z,7.90
2023-04-12T13:08:02.980Z,7.63
2023-04-12T13:10:32.896Z,8.23
2023-04-12T13:13:01.605Z,8.50
2023-04-12T13:15:29.860Z,8.40
2023-04-12T13:17:58.161Z,8.40
2023-04-12T13:20:27.363Z,8.40
2023-04-12T13:22:55.565Z,7.87
2023-04-12T13:25:23.835Z,7.97
2023-04-12T13:27:53.952Z,7.57
2023-04-12T13:30:22.395Z,7.30
2023-04-12T13:32:50.639Z,8.17
2023-04-12T13:35:19.014Z,8.30
2023-04-12T13:37:47.163Z,7.93
2023-04-12T13:40:15.855Z,8.17
2023-04-12T13:42:44.238Z,7.80
2023-04-12T13:45:13.977Z,7.77
2023-04-12T13:47:42.099Z,7.73
2023-04-12T13:50:17.139Z,8.20
2023-04-12T13:53:03.572Z,7.77
2023-04-12T13:55:34.391Z,7.50
2023-04-12T13:58:06.404Z,7.90
2023-04-12T14:00:35.968Z,8.73
2023-04-12T14:03:04.274Z,8.20
2023-04-12T14:05:42.267Z,8.27
2023-04-12T14:08:29.992Z,8.23
2023-04-12T14:11:56.614Z,8.63
2023-04-12T14:14:39.737Z,8.40
2023-04-12T14:17:34.099Z,8.90
2023-04-12T14:21:32.058Z,8.50
2023-04-12T14:23:56.747Z,9.43
2023-04-12T14:26:29.682Z,8.90
2023-04-12T14:29:11.159Z,9.43
2023-04-12T14:31:41.951Z,9.60
2023-04-12T14:34:11.629Z,9.00
2023-04-12T14:36:39.779Z,8.70
2023-04-12T14:39:26.983Z,9.33
2023-04-12T14:41:55.105Z,9.33
2023-04-12T14:44:25.985Z,9.93
2023-04-12T14:46:54.663Z,9.90
2023-04-12T14:49:24.365Z,10.17
2023-04-12T14:55:08.298Z,9.63
2023-04-12T14:57:36.648Z,9.57
2023-04-12T15:00:12.440Z,9.63
2023-04-12T15:02:41.759Z,10.00
2023-04-12T15:05:11.935Z,10.73
2023-04-12T15:07:40.513Z,10.40
2023-04-12T15:10:09.693Z,9.67
2023-04-12T15:12:37.796Z,10.47
2023-04-12T15:15:07.359Z,9.77
2023-04-12T15:17:39.441Z,9.87
2023-04-12T15:20:12.967Z,10.40
2023-04-12T15:22:46.791Z,10.13
2023-04-12T15:25:19.740Z,10.43
2023-04-12T15:27:48.069Z,10.53
2023-04-12T15:30:17.711Z,10.23
2023-04-12T15:33:05.220Z,11.07
2023-04-12T15:35:36.801Z,9.97
2023-04-12T15:38:07.062Z,10.27
2023-04-12T15:40:35.503Z,10.13
2023-04-12T15:43:10.584Z,9.93
2023-04-12T15:45:43.059Z,9.60
2023-04-12T15:48:11.887Z,10.70
2023-04-12T15:50:42.336Z,10.50
2023-04-12T15:53:12.716Z,10.17
2023-04-12T15:55:43.799Z,10.20
2023-04-12T15:58:12.373Z,10.03
2023-04-12T16:00:41.099Z,10.63
2023-04-12T16:03:12.950Z,10.77
2023-04-12T16:05:43.970Z,11.03
2023-04-12T16:08:15.327Z,10.80
2023-04-12T16:10:56.650Z,11.57
2023-04-12T16:13:27.576Z,11.23
2023-04-12T16:15:56.566Z,11.17
2023-04-12T16:18:24.901Z,11.03
2023-04-12T16:20:54.021Z,11.40
2023-04-12T16:23:23.648Z,11.17
2023-04-12T16:25:53.844Z,10.90
2023-04-12T16:28:22.621Z,11.60
2023-04-12T16:30:50.957Z,11.20
2023-04-12T16:33:19.134Z,11.13
2023-04-12T16:35:47.405Z,11.27
2023-04-12T16:38:17.693Z,10.73
2023-04-12T16:40:47.321Z,11.17
2023-04-12T16:43:15.498Z,12.13
2023-04-12T16:45:45.705Z,12.93
2023-04-12T16:48:14.423Z,13.10
2023-04-12T16:50:47.326Z,11.57
2023-04-12T16:53:16.751Z,11.20
2023-04-12T16:55:46.604Z,11.53
2023-04-12T16:58:16.616Z,11.07
2023-04-12T17:00:44.880Z,10.90
2023-04-12T17:03:14.097Z,11.30
2023-04-12T17:05:42.306Z,12.90
2023-04-12T17:08:10.526Z,11.27
2023-04-12T17:10:38.763Z,11.27
2023-04-12T17:13:06.887Z,10.63
2023-04-12T17:15:36.515Z,11.07
2023-04-12T17:18:07.308Z,11.73
2023-04-12T17:20:35.605Z,11.63
2023-04-12T17:23:04.582Z,10.67
2023-04-12T17:25:34.811Z,12.10
2023-04-12T17:28:08.072Z,11.57
2023-04-12T17:30:38.002Z,12.40
2023-04-12T17:33:09.261Z,17.50
2023-04-12T17:35:38.008Z,16.30
2023-04-12T17:38:06.436Z,12.60
2023-04-12T17:40:34.704Z,10.87
2023-04-12T17:43:03.505Z,12.30
2023-04-12T17:45:33.867Z,10.90
2023-04-12T17:48:04.185Z,12.00
2023-04-12T17:50:32.840Z,11.10
2023-04-12T17:53:01.817Z,11.80
2023-04-12T17:55:30.208Z,12.77
2023-04-12T17:57:58.455Z,11.90
2023-04-12T18:00:26.722Z,11.43
2023-04-12T18:02:55.528Z,11.77
2023-04-12T18:05:25.203Z,12.17
2023-04-12T18:07:53.344Z,12.87
2023-04-12T18:10:23.221Z,11.80
2023-04-12T18:12:51.452Z,13.87
2023-04-12T18:15:19.959Z,13.67
2023-04-12T18:17:48.242Z,15.00
2023-04-12T18:20:17.170Z,15.10
2023-04-12T18:22:46.831Z,15.07
2023-04-12T18:25:15.071Z,14.10
2023-04-12T18:27:43.283Z,13.53
2023-04-12T18:30:12.062Z,13.83
2023-04-12T18:32:40.327Z,15.53
2023-04-12T18:35:09.421Z,17.70
2023-04-12T18:37:38.069Z,18.10
2023-04-12T18:40:08.596Z,19.17
2023-04-12T18:42:36.922Z,17.07
2023-04-12T18:45:05.996Z,18.33
2023-04-12T18:47:34.257Z,16.87
2023-04-12T18:50:02.513Z,16.03
2023-04-12T18:52:30.834Z,16.00
2023-04-12T18:54:59.040Z,16.80
2023-04-12T18:57:29.090Z,16.27
2023-04-12T18:59:57.392Z,16.83
2023-04-12T19:02:25.783Z,16.50
2023-04-12T19:04:54.240Z,17.87
2023-04-12T19:07:22.568Z,19.93
2023-04-12T19:09:50.739Z,20.57
2023-04-12T19:12:18.940Z,20.97
2023-04-12T19:14:48.522Z,21.30
2023-04-12T19:17:16.666Z,21.90
2023-04-12T19:20:24.967Z,21.80
2023-04-12T19:22:53.435Z,25.10
2023-04-12T19:25:21.849Z,23.83
2023-04-12T19:27:49.941Z,22.07
2023-04-12T19:30:21.300Z,23.33
2023-04-12T19:32:49.478Z,22.47
2023-04-12T19:35:17.783Z,22.57
2023-04-12T19:37:45.877Z,23.67
2023-04-12T19:40:14.021Z,26.23
2023-04-12T19:42:42.770Z,29.47
2023-04-12T19:45:11.002Z,31.43
2023-04-12T19:47:44.733Z,33.00
2023-04-12T19:50:14.948Z,30.03
2023-04-12T19:52:43.168Z,29.00
2023-04-12T19:55:12.233Z,25.33
2023-04-12T19:57:41.685Z,24.47
2023-04-12T20:00:12.978Z,22.53
2023-04-12T20:02:42.554Z,25.07
2023-04-12T20:05:11.181Z,23.93
2023-04-12T20:07:39.894Z,23.87
2023-04-12T20:10:10.285Z,23.67
2023-04-12T20:12:39.072Z,23.23
2023-04-12T20:15:08.971Z,21.63
2023-04-12T20:17:37.096Z,21.17
2023-04-12T20:20:10.650Z,21.33
2023-04-12T20:22:38.704Z,20.13
2023-04-12T20:25:07.176Z,20.13
2023-04-12T20:27:36.551Z,20.87
2023-04-12T20:30:05.507Z,20.77
2023-04-12T20:32:34.389Z,19.67
2023-04-12T20:35:03.657Z,20.77
2023-04-12T20:37:33.826Z,20.70
2023-04-12T20:40:06.070Z,21.47
2023-04-12T20:42:34.075Z,20.87
2023-04-12T20:45:02.104Z,21.93
2023-04-12T20:47:30.098Z,23.50
2023-04-12T20:49:58.148Z,25.60
2023-04-12T20:52:26.166Z,26.70
2023-04-12T20:54:57.139Z,24.73
2023-04-12T20:57:25.526Z,24.10
2023-04-12T20:59:53.458Z,21.90
2023-04-12T21:02:21.584Z,21.27
2023-04-12T21:04:50.716Z,22.03
2023-04-12T21:07:20.212Z,21.80
2023-04-12T21:09:48.132Z,22.17
2023-04-12T21:12:18.241Z,22.87
2023-04-12T21:14:50.212Z,23.03
2023-04-12T21:17:22.281Z,23.07
2023-04-12T21:19:51.058Z,24.23
2023-04-12T21:22:20.403Z,25.07
2023-04-12T21:24:48.777Z,24.37
2023-04-12T21:27:18.048Z,25.33
2023-04-12T21:29:47.254Z,25.50
2023-04-12T21:32:15.161Z,24.67
2023-04-12T21:34:43.294Z,23.90
2023-04-12T21:37:11.247Z,23.57
2023-04-12T21:39:39.892Z,21.80
2023-04-12T21:42:07.824Z,22.63
2023-04-12T21:44:38.863Z,21.87
2023-04-12T21:47:06.818Z,21.70
2023-04-12T21:49:35.280Z,22.83
2023-04-12T21:52:03.171Z,26.47
2023-04-12T21:54:33.275Z,26.20
2023-04-12T21:57:02.134Z,25.63
2023-04-12T21:59:30.225Z,25.93
2023-04-12T22:01:59.562Z,24.63
2023-04-12T22:04:27.513Z,25.40
2023-04-12T22:06:56.618Z,24.33
2023-04-12T22:09:24.698Z,22.60
2023-04-12T22:11:53.845Z,23.00
2023-04-12T22:14:21.779Z,20.57
2023-04-12T22:16:52.084Z,22.80
2023-04-12T22:19:21.462Z,23.30
2023-04-12T22:21:49.365Z,23.30
2023-04-12T22:24:17.335Z,24.07
2023-04-12T22:26:45.247Z,24.00
2023-04-12T22:29:13.323Z,22.17
2023-04-12T22:31:43.468Z,23.13
2023-04-12T22:34:11.445Z,23.97
2023-04-12T22:36:42.319Z,23.57
2023-04-12T22:39:11.336Z,22.97
2023-04-12T22:41:39.236Z,21.80
2023-04-12T22:44:09.127Z,21.57
2023-04-12T22:46:38.722Z,22.33
2023-04-12T22:49:07.198Z,21.50
2023-04-12T22:51:35.452Z,21.43
2023-04-12T22:54:06.226Z,20.53
2023-04-12T22:56:34.455Z,20.70
2023-04-12T22:59:02.619Z,19.73
2023-04-12T23:01:30.551Z,20.03
2023-04-12T23:04:01.019Z,20.23
2023-04-12T23:06:29.853Z,23.83
2023-04-12T23:08:58.790Z,23.90
2023-04-12T23:11:29.005Z,23.50
2023-04-12T23:13:57.169Z,23.57
2023-04-12T23:16:25.635Z,23.60
2023-04-12T23:18:53.630Z,22.43
2023-04-12T23:21:21.576Z,21.37
2023-04-12T23:23:49.611Z,21.10
2023-04-12T23:26:18.224Z,22.37
2023-04-12T23:28:47.724Z,20.63
2023-04-12T23:31:15.953Z,22.20
2023-04-12T23:33:44.100Z,22.37
2023-04-12T23:36:13.022Z,21.53
2023-04-12T23:38:44.245Z,20.43
2023-04-12T23:41:12.672Z,20.50
2023-04-12T23:43:40.884Z,20.50
2023-04-12T23:46:10.633Z,21.20
2023-04-12T23:48:38.648Z,19.47
2023-04-12T23:51:07.150Z,20.13
2023-04-12T23:53:35.203Z,18.30
2023-04-12T23:56:03.187Z,18.97
2023-04-12T23:58:31.121Z,19.23
